Bowling Green Warren County Regional Airport
KBWG : now visible

Airfield :











YOU CAN JOIN US ON...

 
LOGIN :

Register | Disclaimer

   EN    FR    IT 

 









Legend :    VFR   Marginal VFR   IFR   Intensive IFR   Very Intensive IFR
Visi :
Ceiling :
>= 8 km
>= 3000ft
5 to 8 km
1000 to 3000 ft
1500m to 5 km
500 to 1000 ft
800 to 1500m
200 to 500 ft
< 800m
< 200 ft
Symbols :   Thunderstorms  Fog  Heavy snow  Heavy precipitations  Wind > 20 kt






- Airport Elevation : 547 ft


KBWG - Bowling Green Warren County Regional

CURRENT METAR :
  • 300053Z AUTO 00000KT 10SM CLR 21/11 A3014 RMK AO2 SLP202 T02110106

EXPIRED METARs :
  • 292353Z AUTO VRB03KT 10SM FEW060 23/11 A3014 RMK AO2 SLP203 T02280106 10250 20228 53005
  • 292253Z AUTO VRB04KT 10SM FEW055 24/10 A3013 RMK AO2 SLP201 T02390100
  • 292153Z AUTO 31008KT 10SM CLR 24/09 A3014 RMK AO2 SLP201 T02390094
  • 292053Z AUTO 35007KT 300V040 10SM BKN055 24/11 A3013 RMK AO2 SLP199 T02440106 56008

TAF KBWG
Valid from the 30 at 00:00 until the 31 at 00:00 UTC


292320Z 3000/3024 VRB03KT P6SM SCT250
FM301500 07004KT P6SM SCT050
KZME FIR / North America



MET'MAP, your aeronautical weather chart ! - Copyright ORBIFLY December 2007 - Disclaimer

ORBIFLY MET'MAP TEAM :

Programming & Development : Alexandra Zaïnal
Original concept : Baudouin d'Aumeries
Technical & hardware support : Manuel Goepfert
Assistance : Marc-Olivier Méhu




SOURCES & CREDITS :

   NOAA       Earth
Advisory